createdAt,value
2022-09-24T00:01:47.315Z,12.43
2022-09-24T00:04:16.902Z,11.88
2022-09-24T00:06:45.790Z,12.10
2022-09-24T00:09:15.636Z,12.25
2022-09-24T00:11:45.749Z,11.82
2022-09-24T00:14:18.013Z,11.50
2022-09-24T00:16:46.008Z,11.20
2022-09-24T00:19:14.645Z,11.48
2022-09-24T00:21:42.104Z,11.85
2022-09-24T00:24:35.057Z,11.70
2022-09-24T00:27:04.058Z,12.13
2022-09-24T00:29:35.534Z,12.02
2022-09-24T00:32:07.202Z,12.15
2022-09-24T00:34:39.080Z,11.23
2022-09-24T00:37:09.071Z,11.82
2022-09-24T00:39:36.388Z,12.00
2022-09-24T00:42:03.915Z,11.57
2022-09-24T00:44:51.806Z,12.80
2022-09-24T00:47:29.738Z,11.48
2022-09-24T00:50:08.193Z,11.18
2022-09-24T00:52:56.957Z,11.70
2022-09-24T00:55:26.017Z,10.95
2022-09-24T00:57:57.057Z,10.98
2022-09-24T01:00:24.585Z,10.52
2022-09-24T01:02:58.793Z,11.00
2022-09-24T01:05:25.996Z,9.82
2022-09-24T01:07:53.523Z,9.93
2022-09-24T01:10:48.848Z,9.73
2022-09-24T01:13:30.887Z,9.95
2022-09-24T01:16:09.094Z,9.07
2022-09-24T01:18:46.794Z,9.63
2022-09-24T01:21:36.366Z,9.32
2022-09-24T01:24:26.158Z,9.02
2022-09-24T01:27:05.858Z,8.63
2022-09-24T01:29:45.628Z,9.57
2022-09-24T01:32:32.426Z,8.93
2022-09-24T01:35:09.119Z,8.77
2022-09-24T01:37:40.169Z,9.20
2022-09-24T01:40:11.542Z,9.13
2022-09-24T01:42:42.511Z,8.45
2022-09-24T01:45:11.505Z,9.07
2022-09-24T01:47:40.842Z,8.70
2022-09-24T01:50:11.480Z,9.25
2022-09-24T01:52:55.184Z,8.77
2022-09-24T01:57:58.163Z,9.10
2022-09-24T02:00:27.020Z,8.05
2022-09-24T02:03:15.652Z,8.40
2022-09-24T02:05:58.565Z,8.35
2022-09-24T02:08:33.242Z,9.13
2022-09-24T02:11:11.462Z,9.30
2022-09-24T02:13:55.192Z,9.05
2022-09-24T02:18:58.776Z,9.40
2022-09-24T02:21:29.164Z,9.57
2022-09-24T02:24:08.669Z,9.93
2022-09-24T02:26:36.498Z,9.38
2022-09-24T02:29:05.358Z,9.77
2022-09-24T02:31:45.377Z,9.48
2022-09-24T02:34:22.717Z,8.68
2022-09-24T02:36:56.295Z,9.23
2022-09-24T02:39:23.678Z,10.02
2022-09-24T02:41:52.478Z,9.15
2022-09-24T02:44:19.775Z,8.77
2022-09-24T02:46:50.817Z,9.18
2022-09-24T02:49:20.365Z,8.73
2022-09-24T02:51:50.795Z,8.60
2022-09-24T02:54:20.451Z,9.05
2022-09-24T02:56:47.967Z,9.43
2022-09-24T02:59:18.103Z,9.60
2022-09-24T03:01:46.303Z,9.30
2022-09-24T03:04:13.920Z,9.38
2022-09-24T03:06:43.720Z,9.82
2022-09-24T03:09:17.735Z,9.75
2022-09-24T03:11:45.018Z,9.43
2022-09-24T03:14:12.246Z,9.90
2022-09-24T03:16:39.798Z,9.18
2022-09-24T03:19:09.593Z,9.32
2022-09-24T03:21:37.351Z,10.27
2022-09-24T03:24:04.741Z,9.70
2022-09-24T03:26:31.961Z,10.15
2022-09-24T03:29:02.100Z,9.43
2022-09-24T03:31:33.990Z,9.73
2022-09-24T03:34:01.284Z,9.48
2022-09-24T03:36:28.508Z,9.10
2022-09-24T03:38:59.230Z,10.25
2022-09-24T03:41:27.712Z,9.27
2022-09-24T03:43:56.032Z,10.57
2022-09-24T03:46:29.939Z,9.82
2022-09-24T03:49:00.190Z,9.73
2022-09-24T03:51:27.543Z,10.20
2022-09-24T03:53:55.170Z,10.90
2022-09-24T03:56:25.132Z,11.32
2022-09-24T03:58:57.136Z,10.88
2022-09-24T04:01:29.181Z,10.50
2022-09-24T04:03:56.670Z,11.18
2022-09-24T04:06:26.226Z,10.27
2022-09-24T04:08:53.916Z,10.52
2022-09-24T04:11:21.643Z,10.10
2022-09-24T04:13:48.877Z,9.57
2022-09-24T04:16:16.477Z,10.00
2022-09-24T04:18:48.737Z,9.77
2022-09-24T04:21:18.201Z,10.27
2022-09-24T04:23:45.884Z,9.95
2022-09-24T04:26:13.152Z,9.77
2022-09-24T04:28:42.999Z,9.98
2022-09-24T04:31:12.463Z,11.15
2022-09-24T04:33:42.097Z,9.50
2022-09-24T04:36:11.854Z,9.60
2022-09-24T04:38:39.073Z,10.35
2022-09-24T04:41:07.838Z,9.75
2022-09-24T04:43:37.573Z,10.75
2022-09-24T04:46:05.718Z,10.23
2022-09-24T04:48:32.983Z,10.40
2022-09-24T04:51:03.451Z,9.52
2022-09-24T04:53:30.651Z,9.00
2022-09-24T04:56:00.424Z,9.13
2022-09-24T04:58:28.443Z,9.77
2022-09-24T05:01:00.110Z,9.65
2022-09-24T05:03:27.289Z,9.02
2022-09-24T05:05:55.497Z,9.50
2022-09-24T05:08:25.533Z,9.00
2022-09-24T05:10:55.328Z,9.40
2022-09-24T05:13:24.642Z,9.60
2022-09-24T05:15:52.377Z,9.63
2022-09-24T05:18:22.090Z,9.73
2022-09-24T05:20:49.655Z,9.85
2022-09-24T05:23:17.733Z,10.18
2022-09-24T05:26:03.654Z,9.85
2022-09-24T05:28:33.227Z,10.15
2022-09-24T05:31:02.810Z,10.57
2022-09-24T05:33:30.093Z,10.18
2022-09-24T05:36:00.830Z,10.70
2022-09-24T05:38:30.591Z,10.73
2022-09-24T05:41:03.039Z,11.32
2022-09-24T05:43:31.780Z,11.45
2022-09-24T05:46:01.572Z,11.98
2022-09-24T05:48:29.021Z,11.13
2022-09-24T05:50:56.410Z,12.00
2022-09-24T05:53:24.194Z,10.90
2022-09-24T05:55:51.879Z,11.63
2022-09-24T05:58:19.192Z,11.75
2022-09-24T06:00:46.551Z,10.88
2022-09-24T06:03:18.467Z,10.93
2022-09-24T06:05:48.588Z,11.20
2022-09-24T06:08:20.822Z,10.82
2022-09-24T06:10:52.519Z,10.60
2022-09-24T06:13:22.655Z,10.68
2022-09-24T06:15:49.897Z,11.23
2022-09-24T06:18:17.534Z,11.00
2022-09-24T06:20:44.761Z,10.45
2022-09-24T06:23:11.938Z,10.63
2022-09-24T06:25:41.538Z,10.77
2022-09-24T06:28:08.866Z,10.55
2022-09-24T06:30:41.508Z,11.45
2022-09-24T06:33:11.257Z,11.37
2022-09-24T06:35:40.973Z,10.85
2022-09-24T06:38:11.540Z,11.20
2022-09-24T06:40:39.713Z,11.77
2022-09-24T06:43:10.527Z,11.23
2022-09-24T06:45:37.778Z,10.63
2022-09-24T06:48:09.333Z,10.50
2022-09-24T06:50:41.499Z,11.20
2022-09-24T06:53:10.376Z,11.02
2022-09-24T06:55:40.605Z,10.63
2022-09-24T06:58:16.781Z,10.30
2022-09-24T07:00:54.744Z,10.63
2022-09-24T07:03:22.911Z,11.15
2022-09-24T07:05:50.163Z,10.13
2022-09-24T07:08:17.913Z,9.77
2022-09-24T07:10:49.135Z,10.18
2022-09-24T07:13:17.704Z,10.98
2022-09-24T07:15:48.597Z,11.48
2022-09-24T07:18:17.153Z,10.30
2022-09-24T07:20:45.117Z,10.20
2022-09-24T07:23:12.992Z,10.68
2022-09-24T07:25:40.284Z,11.25
2022-09-24T07:28:11.929Z,10.43
2022-09-24T07:30:39.795Z,11.90
2022-09-24T07:33:07.554Z,10.65
2022-09-24T07:35:37.945Z,11.30
2022-09-24T07:38:12.187Z,11.40
2022-09-24T07:40:39.836Z,11.35
2022-09-24T07:43:12.380Z,10.32
2022-09-24T07:45:40.619Z,10.80
2022-09-24T07:48:10.906Z,10.60
2022-09-24T07:50:39.847Z,10.45
2022-09-24T07:53:07.791Z,10.60
2022-09-24T07:55:40.935Z,10.20
2022-09-24T08:00:37.978Z,10.55
2022-09-24T08:03:08.129Z,10.35
2022-09-24T08:05:45.241Z,10.82
2022-09-24T08:08:13.769Z,10.52
2022-09-24T08:10:42.526Z,11.35
2022-09-24T08:13:12.568Z,10.15
2022-09-24T08:15:42.307Z,10.52
2022-09-24T08:18:10.263Z,9.57
2022-09-24T08:20:40.930Z,11.40
2022-09-24T08:23:12.893Z,10.70
2022-09-24T08:25:40.117Z,10.85
2022-09-24T08:28:09.146Z,10.18
2022-09-24T08:30:36.634Z,10.90
2022-09-24T08:33:07.247Z,10.30
2022-09-24T08:35:35.072Z,10.40
2022-09-24T08:38:03.542Z,10.60
2022-09-24T08:40:38.144Z,11.10
2022-09-24T08:43:36.734Z,10.95
2022-09-24T08:46:33.939Z,10.57
2022-09-24T08:49:03.343Z,10.27
2022-09-24T08:51:40.168Z,10.00
2022-09-24T08:54:13.294Z,10.13
2022-09-24T08:56:45.423Z,10.70
2022-09-24T08:59:34.230Z,10.32
2022-09-24T09:02:51.717Z,9.70
2022-09-24T09:05:59.599Z,10.75
2022-09-24T09:09:07.605Z,10.18
2022-09-24T09:11:37.932Z,9.75
2022-09-24T09:14:17.644Z,14.18
2022-09-24T09:17:12.625Z,9.40
2022-09-24T09:19:44.363Z,11.85
2022-09-24T09:22:18.062Z,11.20
2022-09-24T09:24:51.104Z,11.65
2022-09-24T09:27:19.912Z,10.15
2022-09-24T09:29:57.499Z,9.90
2022-09-24T09:32:57.752Z,10.40
2022-09-24T09:35:35.997Z,10.70
2022-09-24T09:38:19.627Z,10.05
2022-09-24T09:41:08.425Z,10.23
2022-09-24T09:43:36.174Z,9.93
2022-09-24T09:46:28.183Z,11.18
2022-09-24T09:49:05.520Z,9.55
2022-09-24T09:51:39.119Z,9.77
2022-09-24T09:54:07.434Z,9.52
2022-09-24T09:56:51.981Z,9.93
2022-09-24T09:59:28.814Z,9.95
2022-09-24T10:01:59.744Z,9.55
2022-09-24T10:04:39.670Z,8.98
2022-09-24T10:07:14.146Z,9.73
2022-09-24T10:09:43.912Z,8.90
2022-09-24T10:12:17.318Z,9.45
2022-09-24T10:17:28.762Z,12.80
2022-09-24T10:19:59.083Z,9.30
2022-09-24T10:22:28.455Z,8.32
2022-09-24T10:25:01.169Z,10.10
2022-09-24T10:27:38.440Z,9.10
2022-09-24T10:30:33.023Z,8.68
2022-09-24T10:33:05.456Z,8.13
2022-09-24T10:35:38.658Z,10.52
2022-09-24T10:38:20.825Z,19.23
2022-09-24T10:40:51.221Z,8.55
2022-09-24T10:43:22.158Z,8.60
2022-09-24T10:46:13.146Z,7.82
2022-09-24T10:48:44.706Z,8.07
2022-09-24T10:51:38.033Z,8.05
2022-09-24T10:54:27.010Z,7.65
2022-09-24T10:56:56.683Z,8.05
2022-09-24T10:59:42.482Z,7.63
2022-09-24T11:02:48.611Z,7.90
2022-09-24T11:05:30.832Z,7.63
2022-09-24T11:08:03.760Z,7.03
2022-09-24T11:11:04.057Z,7.18
2022-09-24T11:13:51.681Z,7.43
2022-09-24T11:16:40.848Z,7.07
2022-09-24T11:19:35.033Z,5.80
2022-09-24T11:22:26.348Z,6.20
2022-09-24T11:25:39.371Z,7.57
2022-09-24T11:28:46.494Z,5.50
2022-09-24T11:31:49.512Z,6.00
2022-09-24T11:34:44.643Z,5.78
2022-09-24T11:37:29.922Z,6.03
2022-09-24T11:40:40.118Z,6.18
2022-09-24T11:43:33.864Z,5.75
2022-09-24T11:46:24.618Z,6.53
2022-09-24T11:49:06.899Z,7.00
2022-09-24T11:51:57.011Z,6.50
2022-09-24T11:54:31.016Z,7.60
2022-09-24T11:57:19.658Z,12.63
2022-09-24T12:00:09.732Z,8.02
2022-09-24T12:02:42.683Z,10.80
2022-09-24T12:05:30.562Z,8.07
2022-09-24T12:08:09.710Z,10.07
2022-09-24T12:10:54.226Z,10.27
2022-09-24T12:13:28.499Z,9.02
2022-09-24T12:16:00.090Z,8.10
2022-09-24T12:18:33.985Z,11.48
2022-09-24T12:21:16.022Z,6.53
2022-09-24T12:23:46.244Z,7.38
2022-09-24T12:26:17.048Z,9.10
2022-09-24T12:29:27.162Z,7.20
2022-09-24T12:32:54.191Z,8.00
2022-09-24T12:35:49.559Z,8.05
2022-09-24T12:38:29.040Z,7.35
2022-09-24T12:41:18.908Z,7.93
2022-09-24T12:43:49.182Z,6.50
2022-09-24T12:46:42.556Z,8.73
2022-09-24T12:49:28.547Z,7.53
2022-09-24T12:52:01.622Z,7.18
2022-09-24T12:54:36.865Z,12.73
2022-09-24T12:57:25.567Z,7.20
2022-09-24T12:59:59.949Z,8.82
2022-09-24T13:02:47.820Z,8.63
2022-09-24T13:05:50.595Z,9.32
2022-09-24T13:08:20.802Z,6.82
2022-09-24T13:11:05.787Z,6.90
2022-09-24T13:13:40.920Z,7.32
2022-09-24T13:16:19.460Z,7.07
2022-09-24T13:18:59.535Z,5.90
2022-09-24T13:21:33.954Z,6.75
2022-09-24T13:24:12.854Z,6.15
2022-09-24T13:26:43.067Z,5.90
2022-09-24T13:29:26.438Z,6.03
2022-09-24T13:32:04.372Z,6.47
2022-09-24T13:34:35.265Z,6.07
2022-09-24T13:37:10.663Z,6.05
2022-09-24T13:39:58.386Z,6.35
2022-09-24T13:42:59.667Z,6.40
2022-09-24T13:45:27.855Z,5.80
2022-09-24T13:48:02.900Z,6.30
2022-09-24T13:50:54.552Z,5.88
2022-09-24T13:53:39.712Z,6.30
2022-09-24T13:56:19.543Z,5.57
2022-09-24T13:58:47.451Z,6.10
2022-09-24T14:01:19.853Z,5.85
2022-09-24T14:04:02.432Z,6.13
2022-09-24T14:06:40.210Z,5.43
2022-09-24T14:09:31.611Z,5.65
2022-09-24T14:12:15.439Z,5.43
2022-09-24T14:14:50.595Z,5.65
2022-09-24T14:17:17.835Z,4.93
2022-09-24T14:19:47.551Z,5.25
2022-09-24T14:22:25.433Z,4.65
2022-09-24T14:25:02.785Z,5.30
2022-09-24T14:27:32.361Z,5.28
2022-09-24T14:30:04.357Z,5.13
2022-09-24T14:32:41.584Z,4.85
2022-09-24T14:35:21.287Z,4.88
2022-09-24T14:37:55.571Z,4.95
2022-09-24T14:40:23.671Z,5.20
2022-09-24T14:42:58.841Z,5.40
2022-09-24T14:45:34.999Z,4.95
2022-09-24T14:48:30.984Z,4.85
2022-09-24T14:50:58.482Z,5.45
2022-09-24T14:53:35.234Z,5.25
2022-09-24T14:56:26.902Z,5.22
2022-09-24T14:58:56.688Z,5.22
2022-09-24T15:01:33.666Z,4.80
2022-09-24T15:04:07.977Z,5.35
2022-09-24T15:06:38.753Z,4.93
2022-09-24T15:09:18.764Z,4.78
2022-09-24T15:11:46.561Z,5.78
2022-09-24T15:14:24.882Z,5.80
2022-09-24T15:16:53.324Z,5.90
2022-09-24T15:19:27.058Z,5.63
2022-09-24T15:21:57.107Z,5.35
2022-09-24T15:24:25.251Z,5.43
2022-09-24T15:27:07.284Z,5.47
2022-09-24T15:29:36.713Z,5.30
2022-09-24T15:32:17.112Z,5.32
2022-09-24T15:34:45.788Z,5.65
2022-09-24T15:37:19.862Z,5.90
2022-09-24T15:39:51.142Z,6.10
2022-09-24T15:42:27.104Z,6.60
2022-09-24T15:44:59.113Z,5.93
2022-09-24T15:47:26.322Z,5.03
2022-09-24T15:49:53.534Z,5.40
2022-09-24T15:52:27.177Z,5.30
2022-09-24T15:54:59.465Z,5.28
2022-09-24T15:57:26.862Z,5.13
2022-09-24T15:59:54.108Z,5.50
2022-09-24T16:02:25.457Z,5.35
2022-09-24T16:04:53.299Z,5.65
2022-09-24T16:07:20.595Z,5.70
2022-09-24T16:09:47.789Z,6.28
2022-09-24T16:12:21.890Z,5.68
2022-09-24T16:14:49.127Z,5.43
2022-09-24T16:17:19.397Z,5.13
2022-09-24T16:19:46.651Z,5.10
2022-09-24T16:22:20.334Z,4.88
2022-09-24T16:24:48.850Z,4.70
2022-09-24T16:27:16.568Z,4.75
2022-09-24T16:29:43.843Z,5.40
2022-09-24T16:32:13.869Z,5.00
2022-09-24T16:34:43.665Z,4.03
2022-09-24T16:37:14.617Z,5.45
2022-09-24T16:39:41.833Z,5.07
2022-09-24T16:42:11.189Z,4.65
2022-09-24T16:44:38.468Z,4.93
2022-09-24T16:47:07.856Z,5.03
2022-09-24T16:49:35.358Z,4.80
2022-09-24T16:52:05.259Z,4.90
2022-09-24T16:54:32.777Z,5.20
2022-09-24T16:57:03.392Z,5.38
2022-09-24T16:59:33.172Z,5.00
2022-09-24T17:02:07.809Z,5.20
2022-09-24T17:04:35.289Z,5.68
2022-09-24T17:07:02.955Z,5.25
2022-09-24T17:10:11.198Z,6.40
2022-09-24T17:12:43.475Z,6.13
2022-09-24T17:15:12.953Z,5.75
2022-09-24T17:17:49.375Z,6.25
2022-09-24T17:20:21.962Z,5.80
2022-09-24T17:22:49.840Z,7.05
2022-09-24T17:25:20.217Z,6.45
2022-09-24T17:27:50.550Z,5.57
2022-09-24T17:30:20.240Z,6.78
2022-09-24T17:32:48.095Z,6.60
2022-09-24T17:35:15.469Z,7.22
2022-09-24T17:37:45.181Z,6.60
2022-09-24T17:40:12.810Z,6.53
2022-09-24T17:42:45.790Z,6.80
2022-09-24T17:45:13.436Z,7.22
2022-09-24T17:48:01.171Z,6.35
2022-09-24T17:50:32.369Z,6.53
2022-09-24T17:53:03.753Z,6.40
2022-09-24T17:55:36.020Z,7.53
2022-09-24T17:58:03.900Z,7.03
2022-09-24T18:00:31.172Z,6.72
2022-09-24T18:02:58.491Z,7.00
2022-09-24T18:05:28.136Z,6.97
2022-09-24T18:07:55.352Z,7.38
2022-09-24T18:10:24.928Z,6.93
2022-09-24T18:12:58.264Z,6.63
2022-09-24T18:15:26.786Z,7.03
2022-09-24T18:17:56.817Z,7.05
2022-09-24T18:20:25.576Z,6.95
2022-09-24T18:22:53.943Z,7.13
2022-09-24T18:25:21.718Z,7.18
2022-09-24T18:27:48.944Z,8.00
2022-09-24T18:30:16.905Z,7.75
2022-09-24T18:32:47.212Z,7.13
2022-09-24T18:35:17.280Z,8.40
2022-09-24T18:37:44.537Z,8.73
2022-09-24T18:40:12.238Z,7.82
2022-09-24T18:42:41.744Z,8.52
2022-09-24T18:45:09.287Z,7.85
2022-09-24T18:47:38.254Z,8.45
2022-09-24T18:50:06.021Z,8.32
2022-09-24T18:52:34.738Z,9.00
2022-09-24T18:55:02.590Z,8.25
2022-09-24T18:57:31.111Z,8.90
2022-09-24T18:59:58.386Z,8.70
2022-09-24T19:02:26.373Z,9.02
2022-09-24T19:04:53.737Z,9.10
2022-09-24T19:07:20.980Z,8.85
2022-09-24T19:09:52.979Z,8.68
2022-09-24T19:12:22.424Z,8.73
2022-09-24T19:14:50.394Z,8.70
2022-09-24T19:17:17.723Z,8.88
2022-09-24T19:19:51.534Z,9.02
2022-09-24T19:22:19.665Z,9.90
2022-09-24T19:24:48.165Z,9.20
2022-09-24T19:27:15.545Z,9.55
2022-09-24T19:29:47.797Z,8.27
2022-09-24T19:32:15.574Z,8.13
2022-09-24T19:34:43.166Z,8.73
2022-09-24T19:37:10.402Z,8.05
2022-09-24T19:39:39.852Z,7.25
2022-09-24T19:42:09.228Z,6.82
2022-09-24T19:44:36.603Z,7.43
2022-09-24T19:47:08.264Z,7.05
2022-09-24T19:49:35.506Z,5.95
2022-09-24T19:52:04.775Z,5.18
2022-09-24T19:54:32.028Z,4.63
2022-09-24T19:56:59.213Z,5.43
2022-09-24T19:59:31.442Z,4.53
2022-09-24T20:02:01.210Z,4.43
2022-09-24T20:04:31.311Z,4.22
2022-09-24T20:07:02.310Z,3.80
2022-09-24T20:09:32.414Z,3.95
2022-09-24T20:12:01.956Z,4.15
2022-09-24T20:14:33.810Z,3.45
2022-09-24T20:17:01.665Z,3.40
2022-09-24T20:19:28.857Z,3.20
2022-09-24T20:21:57.461Z,2.88
2022-09-24T20:24:27.329Z,3.40
2022-09-24T20:27:13.486Z,3.60
2022-09-24T20:29:43.553Z,3.55
2022-09-24T20:32:15.882Z,3.20
2022-09-24T20:34:43.112Z,3.05
2022-09-24T20:37:10.628Z,2.83
2022-09-24T20:39:37.891Z,3.17
2022-09-24T20:42:05.958Z,2.38
2022-09-24T20:44:33.692Z,2.80
2022-09-24T20:47:01.107Z,2.90
2022-09-24T20:49:31.434Z,2.80
2022-09-24T20:51:59.210Z,3.50
2022-09-24T20:54:28.574Z,3.35
2022-09-24T20:56:56.415Z,3.15
2022-09-24T20:59:26.637Z,3.70
2022-09-24T21:01:55.090Z,3.63
2022-09-24T21:04:22.899Z,3.50
2022-09-24T21:06:50.961Z,2.97
2022-09-24T21:09:18.925Z,2.47
2022-09-24T21:11:46.627Z,2.78
2022-09-24T21:14:14.691Z,2.75
2022-09-24T21:16:46.746Z,2.25
2022-09-24T21:19:17.621Z,2.20
2022-09-24T21:21:47.332Z,2.60
2022-09-24T21:24:16.143Z,2.70
2022-09-24T21:26:46.632Z,2.67
2022-09-24T21:29:21.622Z,2.15
2022-09-24T21:31:51.376Z,2.58
2022-09-24T21:34:23.512Z,2.08
2022-09-24T21:36:53.673Z,2.28
2022-09-24T21:39:26.559Z,2.60
2022-09-24T21:41:57.402Z,2.35
2022-09-24T21:44:33.836Z,2.42
2022-09-24T21:47:01.426Z,3.10
2022-09-24T21:49:33.572Z,2.90
2022-09-24T21:52:04.977Z,2.60
2022-09-24T21:54:35.884Z,2.47
2022-09-24T21:57:03.134Z,2.50
2022-09-24T21:59:49.105Z,2.83
2022-09-24T22:02:18.695Z,2.85
2022-09-24T22:04:45.975Z,2.80
2022-09-24T22:07:15.674Z,2.75
2022-09-24T22:09:42.874Z,2.60
2022-09-24T22:12:12.280Z,2.60
2022-09-24T22:14:42.307Z,2.78
2022-09-24T22:17:11.028Z,2.42
2022-09-24T22:19:38.890Z,3.03
2022-09-24T22:22:06.534Z,2.90
2022-09-24T22:24:33.768Z,2.70
2022-09-24T22:27:01.128Z,2.72
2022-09-24T22:29:32.757Z,2.92
2022-09-24T22:32:00.423Z,2.70
2022-09-24T22:34:48.743Z,3.03
2022-09-24T22:37:16.110Z,2.80
2022-09-24T22:39:43.407Z,2.97
2022-09-24T22:42:15.384Z,2.85
2022-09-24T22:44:47.455Z,2.92
2022-09-24T22:47:14.670Z,2.72
2022-09-24T22:49:41.850Z,2.63
2022-09-24T22:52:09.062Z,2.92
2022-09-24T22:54:36.244Z,2.70
2022-09-24T22:57:05.966Z,2.67
2022-09-24T22:59:35.736Z,2.80
2022-09-24T23:02:02.990Z,2.20
2022-09-24T23:04:33.143Z,2.60
2022-09-24T23:07:00.873Z,2.58
2022-09-24T23:09:28.107Z,2.33
2022-09-24T23:11:57.433Z,1.95
2022-09-24T23:14:24.681Z,2.35
2022-09-24T23:16:51.932Z,2.00
2022-09-24T23:19:20.045Z,1.83
2022-09-24T23:21:47.786Z,1.67
2022-09-24T23:24:18.486Z,1.90
2022-09-24T23:26:48.485Z,1.98
2022-09-24T23:29:18.066Z,2.35
2022-09-24T23:31:45.488Z,2.20
2022-09-24T23:34:14.144Z,2.50
2022-09-24T23:36:42.057Z,2.00
2022-09-24T23:39:09.245Z,2.00
2022-09-24T23:41:37.171Z,2.00
2022-09-24T23:44:04.608Z,1.73
2022-09-24T23:46:33.689Z,2.00
2022-09-24T23:49:04.012Z,1.48
2022-09-24T23:51:31.358Z,1.40
2022-09-24T23:54:00.896Z,1.77
2022-09-24T23:56:28.463Z,1.40
2022-09-24T23:58:55.720Z,1.88
